Time;durP1;ratioP1;P1;durP2;ratioP2;P2;SDS_P1;SDS_P2;PMS_P1;PMS_P2;Temp;Humidity;BMP_temperature;BMP_pressure;BME280_temperature;BME280_humidity;BME280_pressure;Samples;Min_cycle;Max_cycle;Signal;HPM_P1;HPM_P2
2021/09/22 00:01:21;;;;;;;0.50;0.50;;;13.50;99.90;;;;;;4413781;32;20574;-64
2021/09/22 00:03:46;;;;;;;1.73;0.82;;;13.40;99.90;;;;;;4414144;32;20122;-64
2021/09/22 00:06:12;;;;;;;0.62;0.60;;;13.50;99.90;;;;;;4414257;32;20110;-64
2021/09/22 00:08:37;;;;;;;0.45;0.45;;;13.50;99.90;;;;;;4412988;32;20085;-64
2021/09/22 00:11:03;;;;;;;0.50;0.50;;;13.60;99.90;;;;;;4413769;32;20185;-64
2021/09/22 00:13:29;;;;;;;0.50;0.50;;;13.50;99.90;;;;;;4400928;32;20062;-64
2021/09/22 00:15:54;;;;;;;0.80;0.60;;;13.50;99.90;;;;;;4414312;32;20058;-64
2021/09/22 00:18:20;;;;;;;0.52;0.52;;;13.50;99.90;;;;;;4413001;32;20138;-64
2021/09/22 00:20:45;;;;;;;8.40;1.15;;;13.50;99.90;;;;;;4413930;32;20073;-64
2021/09/22 00:23:11;;;;;;;1.35;0.93;;;13.50;99.90;;;;;;4414102;32;20058;-64
2021/09/22 00:25:37;;;;;;;0.57;0.57;;;13.50;99.90;;;;;;4399225;32;20539;-64
2021/09/22 00:28:04;;;;;;;12.80;1.37;;;13.50;99.90;;;;;;4399212;32;20130;-64
2021/09/22 00:30:30;;;;;;;0.75;0.50;;;13.50;99.90;;;;;;4413816;32;20061;-64
2021/09/22 00:32:56;;;;;;;1.50;0.80;;;13.50;99.90;;;;;;4387597;32;20071;-64
2021/09/22 00:35:21;;;;;;;1.20;1.00;;;13.40;99.90;;;;;;4412185;32;20073;-64
2021/09/22 00:37:47;;;;;;;6.03;1.50;;;13.40;99.90;;;;;;4397175;32;20065;-64
2021/09/22 00:40:13;;;;;;;0.50;0.50;;;13.40;99.90;;;;;;4397489;32;20134;-64
2021/09/22 00:42:38;;;;;;;0.60;0.43;;;13.40;99.90;;;;;;4397705;32;20506;-64
2021/09/22 00:45:07;;;;;;;2.75;0.80;;;13.40;99.90;;;;;;4384410;32;20476;-65
2021/09/22 00:47:33;;;;;;;2.45;0.62;;;13.40;99.90;;;;;;4397777;32;20062;-64
2021/09/22 00:49:59;;;;;;;2.37;1.15;;;13.40;99.90;;;;;;4398247;32;20459;-64
2021/09/22 00:52:25;;;;;;;0.60;0.60;;;13.40;99.90;;;;;;4397940;32;20482;-64
2021/09/22 00:54:51;;;;;;;0.40;0.40;;;13.40;99.90;;;;;;4384250;32;20421;-64
2021/09/22 00:57:17;;;;;;;0.82;0.68;;;13.40;99.90;;;;;;4397227;32;20066;-64
2021/09/22 00:59:44;;;;;;;0.80;0.73;;;13.40;99.90;;;;;;4383196;32;20061;-64
2021/09/22 01:02:10;;;;;;;4.37;1.35;;;13.40;99.90;;;;;;4396941;32;20110;-64
2021/09/22 01:04:37;;;;;;;10.98;1.05;;;13.30;99.90;;;;;;4383870;32;20409;-64
2021/09/22 01:07:04;;;;;;;0.32;0.32;;;13.30;99.90;;;;;;4383726;32;20117;-64
2021/09/22 01:09:30;;;;;;;0.98;0.85;;;13.30;99.90;;;;;;4382538;32;20106;-64
2021/09/22 01:11:55;;;;;;;3.47;0.80;;;13.20;99.90;;;;;;4384431;32;20066;-64
2021/09/22 01:14:24;;;;;;;0.57;0.57;;;13.20;99.90;;;;;;4397772;32;20385;-64
2021/09/22 01:16:50;;;;;;;0.65;0.65;;;13.10;99.90;;;;;;4404527;32;20066;-64
2021/09/22 01:19:16;;;;;;;0.68;0.68;;;13.10;99.90;;;;;;4398712;32;20447;-64
2021/09/22 01:21:44;;;;;;;1.35;1.23;;;13.10;99.90;;;;;;4413583;32;20074;-64
2021/09/22 01:24:10;;;;;;;0.50;0.50;;;13.00;99.90;;;;;;4413396;32;20058;-64
2021/09/22 01:26:35;;;;;;;0.45;0.45;;;13.00;99.90;;;;;;4412373;32;20413;-64
2021/09/22 01:29:01;;;;;;;3.12;1.37;;;12.90;99.90;;;;;;4410568;32;20082;-64
2021/09/22 01:31:26;;;;;;;0.90;0.90;;;12.90;99.90;;;;;;4412799;32;20057;-64
2021/09/22 01:33:52;;;;;;;1.65;0.90;;;12.90;99.90;;;;;;4413136;32;20112;-64
2021/09/22 01:36:18;;;;;;;2.47;0.57;;;13.00;99.90;;;;;;4412288;32;20077;-64
2021/09/22 01:38:43;;;;;;;0.70;0.52;;;13.10;99.90;;;;;;4413391;32;20401;-64
2021/09/22 01:41:10;;;;;;;1.35;0.82;;;13.00;99.90;;;;;;4411212;32;20061;-64
2021/09/22 01:43:37;;;;;;;0.95;0.77;;;13.00;99.90;;;;;;4412243;32;20075;-64
2021/09/22 01:46:04;;;;;;;0.90;0.70;;;13.00;99.90;;;;;;4398803;32;20487;-64
2021/09/22 01:48:29;;;;;;;3.25;0.75;;;13.10;99.90;;;;;;4413755;32;20503;-64
2021/09/22 01:50:57;;;;;;;0.57;0.57;;;13.10;99.90;;;;;;4413063;32;20066;-64
2021/09/22 01:53:23;;;;;;;0.62;0.62;;;13.10;99.90;;;;;;4412991;32;20073;-64
2021/09/22 01:55:48;;;;;;;0.98;0.90;;;13.10;99.90;;;;;;4399422;32;20081;-64
2021/09/22 01:58:14;;;;;;;0.70;0.70;;;13.10;99.90;;;;;;4398572;32;20073;-64
2021/09/22 02:00:40;;;;;;;3.03;0.95;;;13.10;99.90;;;;;;4398498;32;20066;-64
2021/09/22 02:03:06;;;;;;;0.40;0.40;;;13.10;99.90;;;;;;4398110;32;20116;-64
2021/09/22 02:05:31;;;;;;;2.35;1.52;;;13.20;99.90;;;;;;4399404;32;20505;-64
2021/09/22 02:07:57;;;;;;;2.75;1.42;;;13.20;99.90;;;;;;4411623;32;20065;-64
2021/09/22 02:10:22;;;;;;;6.80;2.22;;;13.20;99.90;;;;;;4411054;32;20332;-64
2021/09/22 02:12:48;;;;;;;4.03;1.00;;;13.20;99.90;;;;;;4412998;32;20551;-64
2021/09/22 02:15:14;;;;;;;5.47;2.15;;;13.20;99.90;;;;;;4398929;32;20065;-64
2021/09/22 02:17:39;;;;;;;3.00;1.08;;;13.20;99.90;;;;;;4414716;32;20139;-64
2021/09/22 02:20:07;;;;;;;1.95;0.90;;;13.20;99.90;;;;;;4415021;32;20483;-64
2021/09/22 02:22:33;;;;;;;24.17;0.98;;;13.20;99.90;;;;;;4414259;32;20074;-64
2021/09/22 02:24:59;;;;;;;10.23;0.95;;;13.20;99.90;;;;;;4415032;32;20504;-64
2021/09/22 02:27:24;;;;;;;0.90;0.73;;;13.20;99.90;;;;;;4413820;32;20061;-64
2021/09/22 02:29:50;;;;;;;3.53;0.95;;;13.20;99.90;;;;;;4415182;32;20069;-64
2021/09/22 02:32:16;;;;;;;0.82;0.73;;;13.20;99.90;;;;;;4415150;32;20057;-64
2021/09/22 02:34:41;;;;;;;0.88;0.88;;;13.20;99.90;;;;;;4401865;32;20058;-64
2021/09/22 02:37:07;;;;;;;3.00;2.05;;;13.20;99.90;;;;;;4402015;32;20070;-64
2021/09/22 02:39:33;;;;;;;1.08;0.75;;;13.20;99.90;;;;;;4385923;32;20074;-64
2021/09/22 02:41:58;;;;;;;0.75;0.75;;;13.10;99.90;;;;;;4386965;32;20070;-64
2021/09/22 02:44:24;;;;;;;4.62;1.52;;;13.10;99.90;;;;;;4386137;32;20487;-64
2021/09/22 02:46:50;;;;;;;18.27;1.05;;;13.20;99.90;;;;;;4385937;32;20133;-64
2021/09/22 02:49:17;;;;;;;10.82;2.08;;;13.20;99.90;;;;;;4399851;32;20562;-64
2021/09/22 02:51:42;;;;;;;1.40;1.20;;;13.20;99.90;;;;;;4386345;32;20495;-64
2021/09/22 02:54:07;;;;;;;3.12;1.30;;;13.20;99.90;;;;;;4399024;32;20075;-64
2021/09/22 02:56:33;;;;;;;5.22;1.48;;;13.20;99.90;;;;;;4398463;32;20065;-64
2021/09/22 02:58:58;;;;;;;0.65;0.65;;;13.20;99.90;;;;;;4399611;32;20127;-64
2021/09/22 03:01:24;;;;;;;0.40;0.40;;;13.20;99.90;;;;;;4399611;32;20535;-64
2021/09/22 03:03:49;;;;;;;0.93;0.93;;;13.20;99.90;;;;;;4398310;32;20443;-64
2021/09/22 03:06:15;;;;;;;0.32;0.32;;;13.10;99.90;;;;;;4398847;32;20070;-64
2021/09/22 03:08:40;;;;;;;1.80;0.80;;;13.10;99.90;;;;;;4398416;32;20071;-64
2021/09/22 03:11:08;;;;;;;0.77;0.77;;;13.00;99.90;;;;;;4398718;32;20079;-64
2021/09/22 03:13:35;;;;;;;8.68;0.73;;;12.90;99.90;;;;;;4384976;32;20062;-64
2021/09/22 03:16:00;;;;;;;0.95;0.93;;;12.90;99.90;;;;;;4401803;32;20061;-63
2021/09/22 03:18:26;;;;;;;2.75;1.08;;;12.90;99.90;;;;;;4430232;32;20065;-63
2021/09/22 03:20:52;;;;;;;0.68;0.52;;;12.90;99.90;;;;;;4428329;32;20162;-63
2021/09/22 03:23:18;;;;;;;0.25;0.25;;;12.80;99.90;;;;;;4399670;32;20086;-63
2021/09/22 03:25:44;;;;;;;5.93;1.85;;;12.80;99.90;;;;;;4400532;32;20073;-63
2021/09/22 03:28:09;;;;;;;0.73;0.73;;;12.90;99.90;;;;;;4412237;32;20061;-63
2021/09/22 03:30:35;;;;;;;2.22;1.05;;;12.80;99.90;;;;;;4414106;32;20424;-63
2021/09/22 03:33:00;;;;;;;0.70;0.70;;;12.70;99.90;;;;;;4414199;32;20065;-63
2021/09/22 03:35:26;;;;;;;11.93;3.28;;;12.80;99.90;;;;;;4414315;32;20070;-63
2021/09/22 03:37:51;;;;;;;0.82;0.82;;;12.70;99.90;;;;;;4401048;32;20587;-63
2021/09/22 03:40:17;;;;;;;1.15;1.00;;;12.70;99.90;;;;;;4414019;32;20065;-63
2021/09/22 03:42:42;;;;;;;0.52;0.52;;;12.70;99.90;;;;;;4414226;32;20057;-63
2021/09/22 03:45:09;;;;;;;1.75;1.25;;;12.70;99.90;;;;;;4414936;32;20069;-63
2021/09/22 03:47:34;;;;;;;0.70;0.70;;;12.60;99.90;;;;;;4387271;32;20441;-63
2021/09/22 03:50:00;;;;;;;38.45;0.82;;;12.70;99.90;;;;;;4414088;32;20062;-63
2021/09/22 03:52:25;;;;;;;4.87;1.42;;;12.50;99.90;;;;;;4414012;32;20086;-63
2021/09/22 03:54:51;;;;;;;21.42;0.95;;;12.60;99.90;;;;;;4413467;32;20082;-63
2021/09/22 03:57:16;;;;;;;4.55;1.27;;;12.50;99.90;;;;;;4412342;32;20078;-63
2021/09/22 03:59:42;;;;;;;0.30;0.30;;;12.50;99.90;;;;;;4413020;32;20481;-63
2021/09/22 04:02:08;;;;;;;1.35;0.60;;;12.50;99.90;;;;;;4413835;32;20082;-63
2021/09/22 04:04:33;;;;;;;0.55;0.55;;;12.50;99.90;;;;;;4413887;32;20065;-63
2021/09/22 04:06:59;;;;;;;6.07;0.95;;;12.50;99.90;;;;;;4399445;32;20424;-63
2021/09/22 04:09:25;;;;;;;0.52;0.52;;;12.50;99.90;;;;;;4412707;32;20066;-63
2021/09/22 04:11:51;;;;;;;1.30;0.80;;;12.50;99.90;;;;;;4413781;32;20061;-63
2021/09/22 04:14:16;;;;;;;0.50;0.50;;;12.50;99.90;;;;;;4399478;32;20539;-63
2021/09/22 04:16:42;;;;;;;0.60;0.60;;;12.50;99.90;;;;;;4414841;32;20121;-63
2021/09/22 04:19:07;;;;;;;1.15;1.00;;;12.50;99.90;;;;;;4413837;32;20536;-63
2021/09/22 04:21:33;;;;;;;0.43;0.43;;;12.60;99.90;;;;;;4407640;32;20078;-63
2021/09/22 04:23:59;;;;;;;1.15;0.88;;;12.50;99.90;;;;;;4408271;32;20124;-63
2021/09/22 04:26:25;;;;;;;12.18;1.50;;;12.50;99.90;;;;;;4383914;32;20352;-63
2021/09/22 04:28:51;;;;;;;7.20;1.55;;;12.50;99.90;;;;;;4420334;32;20505;-63
2021/09/22 04:31:16;;;;;;;9.75;1.12;;;12.60;99.90;;;;;;4429025;32;20073;-63
2021/09/22 04:33:42;;;;;;;1.25;1.15;;;12.50;99.90;;;;;;4415477;32;20069;-63
2021/09/22 04:36:07;;;;;;;1.05;0.80;;;12.50;99.90;;;;;;4408145;32;20073;-63
2021/09/22 04:38:34;;;;;;;0.98;0.70;;;12.50;99.90;;;;;;4413805;32;20086;-63
2021/09/22 04:41:00;;;;;;;1.65;0.70;;;12.50;99.90;;;;;;4423952;32;20104;-63
2021/09/22 04:43:25;;;;;;;7.75;1.30;;;12.50;99.90;;;;;;4429468;32;20061;-63
2021/09/22 04:45:51;;;;;;;0.35;0.35;;;12.50;99.90;;;;;;4428313;32;20070;-63
2021/09/22 04:48:16;;;;;;;6.30;1.95;;;12.50;99.90;;;;;;4428003;32;20077;-63
2021/09/22 04:50:42;;;;;;;5.78;1.62;;;12.50;99.90;;;;;;4428680;32;20074;-63
2021/09/22 04:53:07;;;;;;;0.40;0.40;;;12.40;99.90;;;;;;4419521;32;20061;-63
2021/09/22 04:55:33;;;;;;;8.68;0.95;;;12.40;99.90;;;;;;4412033;32;20070;-63
2021/09/22 04:57:58;;;;;;;7.32;0.93;;;12.50;99.90;;;;;;4411809;32;20081;-63
2021/09/22 05:00:24;;;;;;;2.78;1.85;;;12.50;99.90;;;;;;4407483;32;20665;-63
2021/09/22 05:02:49;;;;;;;0.20;0.20;;;12.50;99.90;;;;;;4398147;32;20078;-63
2021/09/22 05:05:15;;;;;;;0.85;0.85;;;12.50;99.90;;;;;;4401063;32;20416;-63
2021/09/22 05:07:41;;;;;;;5.22;1.30;;;12.60;99.90;;;;;;4401552;32;20094;-63
2021/09/22 05:10:08;;;;;;;4.87;1.17;;;12.60;99.90;;;;;;4411237;32;20113;-63
2021/09/22 05:12:34;;;;;;;2.45;0.55;;;12.60;99.90;;;;;;4389447;32;20117;-63
2021/09/22 05:14:59;;;;;;;1.30;1.02;;;12.50;99.90;;;;;;4385491;32;20078;-63
2021/09/22 05:17:25;;;;;;;0.30;0.30;;;12.40;99.90;;;;;;4394305;32;20106;-63
2021/09/22 05:19:50;;;;;;;3.95;1.77;;;12.40;99.90;;;;;;4407848;32;20074;-63
2021/09/22 05:22:16;;;;;;;1.85;1.30;;;12.40;99.90;;;;;;4426924;32;20068;-63
2021/09/22 05:24:43;;;;;;;0.30;0.30;;;12.50;99.90;;;;;;4394472;32;20349;-63
2021/09/22 05:27:08;;;;;;;1.83;0.75;;;12.50;99.90;;;;;;4395040;32;20510;-63
2021/09/22 05:29:35;;;;;;;4.60;2.00;;;12.50;99.90;;;;;;4398205;32;20093;-63
2021/09/22 05:32:01;;;;;;;0.60;0.60;;;12.50;99.90;;;;;;4377585;32;20090;-63
2021/09/22 05:34:26;;;;;;;0.50;0.50;;;12.60;99.90;;;;;;4386132;32;20073;-63
2021/09/22 05:36:52;;;;;;;0.73;0.73;;;12.60;99.90;;;;;;4404802;32;20070;-63
2021/09/22 05:39:19;;;;;;;14.35;0.88;;;12.60;99.90;;;;;;4388026;32;20108;-65
2021/09/22 05:41:45;;;;;;;3.60;1.25;;;12.60;99.90;;;;;;4389891;32;20152;-64
2021/09/22 05:44:11;;;;;;;0.90;0.65;;;12.60;99.90;;;;;;4402568;32;20514;-64
2021/09/22 05:46:37;;;;;;;0.50;0.50;;;12.50;99.90;;;;;;4404937;32;20106;-63
2021/09/22 05:49:05;;;;;;;1.35;0.75;;;12.50;99.90;;;;;;4403759;32;20093;-65
2021/09/22 05:51:31;;;;;;;0.47;0.47;;;12.60;99.90;;;;;;4385917;32;20470;-65
2021/09/22 05:53:58;;;;;;;2.10;0.65;;;12.60;99.90;;;;;;4400830;32;20091;-65
2021/09/22 05:56:23;;;;;;;3.12;1.35;;;12.60;99.90;;;;;;4383595;32;20132;-65
2021/09/22 05:58:49;;;;;;;0.50;0.50;;;12.60;99.90;;;;;;4396000;32;21801;-64
2021/09/22 06:01:15;;;;;;;0.40;0.40;;;12.70;99.90;;;;;;4377175;32;20081;-64
2021/09/22 06:03:42;;;;;;;0.88;0.73;;;12.60;99.90;;;;;;4382556;32;20070;-64
2021/09/22 06:06:08;;;;;;;1.02;0.93;;;12.60;99.90;;;;;;4380449;32;20113;-64
2021/09/22 06:08:33;;;;;;;0.50;0.50;;;12.60;99.90;;;;;;4401618;32;20140;-64
2021/09/22 06:10:59;;;;;;;4.35;1.48;;;12.70;99.90;;;;;;4400921;32;20703;-64
2021/09/22 06:13:24;;;;;;;0.30;0.30;;;12.70;99.90;;;;;;4385441;32;20061;-64
2021/09/22 06:15:52;;;;;;;0.85;0.85;;;12.70;99.90;;;;;;4391433;32;20098;-64
2021/09/22 06:18:17;;;;;;;7.20;1.35;;;12.80;99.90;;;;;;4384018;32;20387;-65
2021/09/22 06:20:43;;;;;;;7.80;1.52;;;12.80;99.90;;;;;;4402057;32;20128;-64
2021/09/22 06:23:08;;;;;;;7.03;1.12;;;12.80;99.90;;;;;;4398512;32;75650;-64
2021/09/22 06:25:34;;;;;;;2.87;0.90;;;12.80;99.90;;;;;;4389847;32;20145;-64
2021/09/22 06:28:00;;;;;;;0.30;0.30;;;12.80;99.90;;;;;;4398867;32;20464;-64
2021/09/22 06:30:26;;;;;;;5.47;1.77;;;12.70;99.90;;;;;;4383732;32;20117;-64
2021/09/22 06:32:52;;;;;;;1.75;1.45;;;12.80;99.90;;;;;;4397958;32;20077;-64
2021/09/22 06:35:17;;;;;;;0.82;0.82;;;12.80;99.90;;;;;;4400805;32;20209;-64
2021/09/22 06:37:48;;;;;;;0.55;0.55;;;12.90;99.90;;;;;;4396734;32;20065;-64
2021/09/22 06:40:14;;;;;;;5.55;1.37;;;12.90;99.90;;;;;;4400982;32;20076;-64
2021/09/22 06:42:39;;;;;;;0.93;0.82;;;13.00;99.90;;;;;;4394878;32;20478;-64
2021/09/22 06:45:05;;;;;;;0.60;0.60;;;13.00;99.90;;;;;;4398672;32;20176;-64
2021/09/22 06:47:31;;;;;;;3.97;1.10;;;13.10;99.90;;;;;;4398343;32;20458;-64
2021/09/22 06:49:56;;;;;;;16.17;2.25;;;13.00;99.90;;;;;;4394780;32;20082;-65
2021/09/22 06:52:22;;;;;;;0.40;0.40;;;13.00;99.90;;;;;;4395892;32;20094;-64
2021/09/22 06:54:47;;;;;;;0.47;0.47;;;13.00;99.90;;;;;;4406508;32;20061;-64
2021/09/22 06:57:13;;;;;;;1.20;0.93;;;13.00;99.90;;;;;;4401135;32;20145;-64
2021/09/22 06:59:38;;;;;;;4.87;1.85;;;13.10;99.90;;;;;;4396165;32;20410;-64
2021/09/22 07:02:03;;;;;;;1.27;1.17;;;13.20;99.90;;;;;;4401960;32;20139;-64
2021/09/22 07:04:29;;;;;;;17.23;1.50;;;13.20;99.90;;;;;;4400694;32;20491;-64
2021/09/22 07:06:54;;;;;;;1.37;0.85;;;13.30;99.90;;;;;;4400574;32;20086;-64
2021/09/22 07:09:20;;;;;;;1.45;0.57;;;13.30;99.90;;;;;;4390772;32;20102;-64
2021/09/22 07:11:45;;;;;;;0.45;0.45;;;13.20;99.90;;;;;;4391894;32;20089;-64
2021/09/22 07:14:11;;;;;;;3.92;1.60;;;13.30;99.90;;;;;;4394776;32;20162;-64
2021/09/22 07:16:36;;;;;;;1.10;0.88;;;13.30;99.90;;;;;;4400124;32;20066;-64
2021/09/22 07:19:02;;;;;;;0.40;0.40;;;13.40;99.90;;;;;;4397150;32;20096;-64
2021/09/22 07:21:27;;;;;;;6.45;0.75;;;13.30;99.90;;;;;;4396032;32;20180;-64
2021/09/22 07:23:53;;;;;;;1.58;1.23;;;13.40;99.90;;;;;;4399658;32;20153;-64
2021/09/22 07:26:19;;;;;;;2.62;1.25;;;13.40;99.90;;;;;;4382395;32;20082;-64
2021/09/22 07:28:44;;;;;;;0.35;0.35;;;13.40;99.90;;;;;;4395094;32;20432;-64
2021/09/22 07:31:10;;;;;;;5.60;2.03;;;13.40;99.90;;;;;;4392937;32;20410;-64
2021/09/22 07:33:36;;;;;;;3.35;0.98;;;13.50;99.90;;;;;;4371773;32;21384;-64
2021/09/22 07:36:03;;;;;;;0.68;0.68;;;13.50;99.90;;;;;;4385509;32;20657;-64
2021/09/22 07:38:28;;;;;;;13.15;0.50;;;13.60;99.90;;;;;;4379783;32;20073;-64
2021/09/22 07:40:55;;;;;;;1.75;1.37;;;13.70;99.90;;;;;;4392995;32;20094;-64
2021/09/22 07:43:21;;;;;;;2.55;1.33;;;13.70;99.90;;;;;;4392418;32;20109;-64
2021/09/22 07:45:47;;;;;;;2.03;1.10;;;13.70;99.90;;;;;;4396666;32;20094;-64
2021/09/22 07:48:12;;;;;;;21.83;1.17;;;13.70;99.90;;;;;;4380878;32;20160;-63
2021/09/22 07:50:38;;;;;;;11.40;0.68;;;13.70;99.90;;;;;;4396024;32;20093;-63
2021/09/22 07:53:04;;;;;;;0.65;0.60;;;13.80;99.90;;;;;;4392889;32;20081;-64
2021/09/22 07:55:30;;;;;;;0.70;0.70;;;13.80;99.90;;;;;;4391708;32;20136;-64
2021/09/22 07:57:55;;;;;;;1.23;0.82;;;13.90;99.90;;;;;;4367600;32;20202;-64
2021/09/22 08:00:22;;;;;;;11.00;1.40;;;13.90;99.90;;;;;;4386264;32;20683;-64
2021/09/22 08:02:49;;;;;;;2.55;1.62;;;13.80;99.90;;;;;;4391851;32;20082;-64
2021/09/22 08:05:15;;;;;;;3.78;1.23;;;13.80;99.90;;;;;;4377713;32;20098;-64
2021/09/22 08:07:41;;;;;;;2.95;1.00;;;13.80;99.90;;;;;;4393284;32;20515;-64
2021/09/22 08:10:07;;;;;;;3.25;0.68;;;13.80;99.90;;;;;;4393492;32;20227;-64
2021/09/22 08:12:33;;;;;;;4.82;1.90;;;13.80;99.90;;;;;;4381801;32;20109;-64
2021/09/22 08:14:59;;;;;;;0.60;0.60;;;13.80;99.90;;;;;;4398697;32;20082;-64
2021/09/22 08:17:24;;;;;;;1.45;0.75;;;13.90;99.90;;;;;;4392867;32;20096;-64
2021/09/22 08:19:50;;;;;;;3.10;1.75;;;13.90;99.90;;;;;;4385846;32;20724;-63
2021/09/22 08:22:17;;;;;;;2.00;0.57;;;13.90;99.90;;;;;;4394438;32;20074;-63
2021/09/22 08:24:43;;;;;;;3.47;0.95;;;13.90;99.90;;;;;;4400134;32;20411;-63
2021/09/22 08:27:08;;;;;;;0.40;0.40;;;14.00;99.90;;;;;;4395327;32;20554;-63
2021/09/22 08:29:34;;;;;;;8.90;1.30;;;14.00;99.90;;;;;;4398633;32;20613;-64
2021/09/22 08:32:00;;;;;;;0.50;0.50;;;14.00;99.90;;;;;;4386428;32;20510;-63
2021/09/22 08:34:26;;;;;;;0.70;0.70;;;14.00;99.90;;;;;;4378789;32;20454;-63
2021/09/22 08:36:52;;;;;;;1.23;1.12;;;14.00;99.90;;;;;;4377634;32;20109;-63
2021/09/22 08:39:18;;;;;;;2.28;0.70;;;14.00;99.90;;;;;;4397967;32;20161;-63
2021/09/22 08:41:45;;;;;;;10.07;1.12;;;14.00;99.90;;;;;;4396260;32;20077;-64
2021/09/22 08:44:12;;;;;;;4.10;1.25;;;14.00;99.90;;;;;;4398154;32;20066;-63
2021/09/22 08:46:40;;;;;;;0.75;0.75;;;14.00;99.90;;;;;;4394115;32;20085;-63
2021/09/22 08:49:06;;;;;;;0.57;0.57;;;14.00;99.90;;;;;;4393277;32;20195;-63
2021/09/22 08:51:32;;;;;;;0.80;0.77;;;14.10;99.90;;;;;;4398074;32;20068;-64
2021/09/22 08:53:59;;;;;;;0.52;0.52;;;14.10;99.90;;;;;;4392240;32;20085;-63
2021/09/22 08:56:25;;;;;;;1.98;1.15;;;14.20;99.90;;;;;;4384764;32;20181;-64
2021/09/22 08:58:52;;;;;;;13.32;2.53;;;14.30;99.90;;;;;;4396846;32;20617;-64
2021/09/22 09:01:20;;;;;;;5.78;1.50;;;14.30;99.90;;;;;;4381880;32;20632;-64
2021/09/22 09:03:47;;;;;;;1.75;1.17;;;14.30;99.90;;;;;;4382520;32;20137;-64
2021/09/22 09:06:18;;;;;;;0.60;0.60;;;14.40;99.90;;;;;;4398139;32;20162;-64
2021/09/22 09:08:43;;;;;;;5.22;1.37;;;14.40;99.90;;;;;;4387613;32;20077;-65
2021/09/22 09:11:09;;;;;;;0.65;0.65;;;14.50;99.90;;;;;;4394127;32;20086;-64
2021/09/22 09:13:52;;;;;;;2.17;1.37;;;14.40;99.90;;;;;;4389517;32;20090;-64
2021/09/22 09:16:18;;;;;;;6.60;0.82;;;14.40;99.90;;;;;;4394009;32;20129;-64
2021/09/22 09:18:48;;;;;;;0.88;0.62;;;14.50;99.90;;;;;;4384533;32;20528;-64
2021/09/22 09:21:13;;;;;;;1.15;0.90;;;14.60;99.90;;;;;;4398945;32;20146;-64
2021/09/22 09:23:48;;;;;;;4.68;1.67;;;14.60;99.90;;;;;;4396103;32;20077;-64
2021/09/22 09:26:18;;;;;;;0.90;0.90;;;14.80;99.90;;;;;;4376841;32;20149;-65
2021/09/22 09:28:48;;;;;;;0.83;0.83;;;14.80;99.90;;;;;;4376838;32;20235;-64
2021/09/22 09:31:13;;;;;;;1.90;1.35;;;14.90;99.90;;;;;;4379039;32;20697;-65
2021/09/22 09:33:52;;;;;;;2.08;1.15;;;14.90;99.90;;;;;;4370975;32;20105;-65
2021/09/22 09:36:23;;;;;;;2.95;1.35;;;14.90;99.90;;;;;;4392499;32;20065;-65
2021/09/22 09:38:52;;;;;;;0.30;0.30;;;15.00;99.90;;;;;;4398408;32;20483;-65
2021/09/22 09:41:39;;;;;;;12.70;1.67;;;15.00;99.90;;;;;;4385661;32;20348;-65
2021/09/22 09:44:08;;;;;;;0.95;0.95;;;14.90;99.90;;;;;;4386470;32;20066;-65
2021/09/22 09:46:34;;;;;;;1.10;0.73;;;15.00;99.90;;;;;;4383442;32;20061;-65
2021/09/22 09:49:04;;;;;;;0.43;0.43;;;15.20;99.90;;;;;;4394932;32;20094;-65
2021/09/22 09:51:39;;;;;;;0.50;0.50;;;15.10;99.90;;;;;;4397691;32;20060;-65
2021/09/22 09:54:08;;;;;;;2.03;1.37;;;15.20;99.90;;;;;;4398422;32;20077;-65
2021/09/22 09:56:33;;;;;;;1.30;0.93;;;15.20;99.90;;;;;;4377970;32;20065;-65
2021/09/22 09:59:00;;;;;;;5.00;0.90;;;15.30;99.90;;;;;;4398354;32;20132;-64
2021/09/22 10:01:55;;;;;;;4.10;1.27;;;15.30;99.90;;;;;;4398366;32;20533;-64
2021/09/22 10:04:23;;;;;;;1.08;1.00;;;15.40;99.90;;;;;;4373613;32;20665;-64
2021/09/22 10:06:50;;;;;;;1.20;1.10;;;15.30;99.90;;;;;;4394411;32;20095;-64
2021/09/22 10:09:16;;;;;;;0.60;0.60;;;15.30;99.90;;;;;;4394928;32;20089;-64
2021/09/22 10:11:45;;;;;;;0.80;0.80;;;15.30;99.90;;;;;;4401102;32;20445;-65
2021/09/22 10:14:13;;;;;;;2.50;1.10;;;15.40;99.90;;;;;;4398605;32;20566;-64
2021/09/22 10:16:40;;;;;;;2.03;1.20;;;15.40;99.90;;;;;;4395027;32;20098;-64
2021/09/22 10:19:06;;;;;;;9.18;2.08;;;15.40;99.90;;;;;;4380623;32;20094;-64
2021/09/22 10:21:33;;;;;;;3.40;1.10;;;15.50;99.90;;;;;;4382249;32;20148;-65
2021/09/22 10:24:01;;;;;;;3.03;1.05;;;15.70;99.90;;;;;;4396085;32;20131;-65
2021/09/22 10:26:28;;;;;;;1.40;0.60;;;15.70;99.90;;;;;;4394002;32;20081;-64
2021/09/22 10:28:58;;;;;;;5.00;2.15;;;15.80;99.90;;;;;;4380811;32;20291;-64
2021/09/22 10:31:29;;;;;;;21.48;0.98;;;15.70;99.90;;;;;;4394143;32;20090;-64
2021/09/22 10:33:57;;;;;;;2.87;1.60;;;15.80;99.90;;;;;;4402668;32;20390;-64
2021/09/22 10:36:40;;;;;;;1.65;1.33;;;15.70;99.90;;;;;;4395418;32;20101;-65
2021/09/22 10:39:08;;;;;;;1.95;1.35;;;15.80;99.90;;;;;;4387921;32;20142;-65
2021/09/22 10:41:44;;;;;;;3.45;1.17;;;15.80;99.90;;;;;;4396112;32;20590;-65
2021/09/22 10:44:23;;;;;;;2.50;1.33;;;15.80;99.90;;;;;;4363999;32;20085;-65
2021/09/22 10:46:48;;;;;;;1.45;0.90;;;15.80;99.90;;;;;;4394545;32;20479;-65
2021/09/22 10:49:14;;;;;;;0.50;0.50;;;15.90;99.90;;;;;;4402938;32;20085;-65
2021/09/22 10:51:44;;;;;;;0.40;0.40;;;16.00;99.90;;;;;;4387821;32;20147;-65
2021/09/22 10:54:13;;;;;;;12.50;1.10;;;16.00;99.90;;;;;;4403830;32;20101;-65
2021/09/22 10:56:58;;;;;;;3.25;1.27;;;16.10;99.90;;;;;;4399704;32;20479;-65
2021/09/22 10:59:27;;;;;;;1.17;1.08;;;16.10;99.90;;;;;;4399995;32;20106;-65
2021/09/22 11:01:53;;;;;;;0.68;0.68;;;16.10;99.90;;;;;;4393130;32;20333;-65
2021/09/22 11:04:19;;;;;;;0.52;0.52;;;16.20;99.90;;;;;;4383461;32;20110;-65
2021/09/22 11:06:47;;;;;;;0.40;0.40;;;16.20;99.90;;;;;;4378318;32;20114;-65
2021/09/22 11:09:19;;;;;;;1.65;0.77;;;16.20;99.90;;;;;;4397063;32;20082;-65
2021/09/22 11:12:03;;;;;;;21.30;2.35;;;16.30;99.90;;;;;;4395602;32;20089;-65
2021/09/22 11:14:32;;;;;;;1.75;0.93;;;16.30;99.90;;;;;;4387432;32;20432;-65
2021/09/22 11:17:00;;;;;;;0.65;0.65;;;16.40;99.90;;;;;;4398092;32;20094;-65
2021/09/22 11:19:27;;;;;;;2.83;0.77;;;16.40;99.90;;;;;;4399612;32;20066;-65
2021/09/22 11:21:53;;;;;;;4.20;0.70;;;16.40;99.90;;;;;;4380230;32;20066;-65
2021/09/22 11:24:21;;;;;;;1.45;0.88;;;16.50;99.90;;;;;;4398898;32;20074;-65
2021/09/22 11:26:51;;;;;;;1.95;1.42;;;16.50;99.90;;;;;;4405793;32;20487;-66
2021/09/22 11:29:39;;;;;;;0.40;0.40;;;16.60;99.90;;;;;;4406898;32;20090;-65
2021/09/22 11:32:27;;;;;;;0.68;0.68;;;16.70;99.90;;;;;;4402644;32;20116;-65
2021/09/22 11:34:55;;;;;;;2.85;0.82;;;16.80;99.90;;;;;;4389132;32;20112;-65
2021/09/22 11:37:21;;;;;;;0.75;0.70;;;17.20;99.90;;;;;;4399774;32;20554;-65
2021/09/22 11:39:47;;;;;;;0.40;0.40;;;17.50;99.90;;;;;;4385093;32;20090;-65
2021/09/22 11:42:15;;;;;;;0.30;0.30;;;17.50;99.90;;;;;;4404721;32;20076;-66
2021/09/22 11:44:41;;;;;;;0.45;0.45;;;17.50;99.90;;;;;;4400129;32;20102;-65
2021/09/22 11:47:09;;;;;;;6.72;1.65;;;17.60;99.90;;;;;;4397667;32;20081;-64
2021/09/22 11:49:41;;;;;;;2.92;1.35;;;18.00;99.90;;;;;;4395728;32;20442;-64
2021/09/22 11:52:23;;;;;;;7.53;1.25;;;18.30;99.90;;;;;;4400913;32;20075;-64
2021/09/22 11:54:53;;;;;;;0.50;0.50;;;18.30;99.90;;;;;;4389903;32;20145;-65
2021/09/22 11:57:20;;;;;;;;;;;18.50;99.90;;;;;;4389052;32;20074;-65
2021/09/22 11:59:47;;;;;;;0.93;0.90;;;18.70;99.90;;;;;;4407287;32;20057;-65
2021/09/22 12:02:15;;;;;;;7.75;1.50;;;19.10;99.90;;;;;;4397781;32;20160;-65
2021/09/22 12:04:42;;;;;;;5.28;1.00;;;19.50;99.90;;;;;;4398087;32;20594;-65
2021/09/22 12:07:09;;;;;;;0.40;0.40;;;19.70;99.90;;;;;;4400827;32;20091;-65
2021/09/22 12:09:43;;;;;;;1.80;1.20;;;19.70;99.90;;;;;;4381831;32;20420;-65
2021/09/22 12:12:16;;;;;;;2.53;0.90;;;19.50;99.90;;;;;;4375370;32;20806;-65
2021/09/22 12:14:47;;;;;;;0.45;0.45;;;19.40;99.90;;;;;;4386868;32;20093;-65
2021/09/22 12:17:15;;;;;;;0.20;0.20;;;19.30;99.90;;;;;;4406735;32;20101;-65
2021/09/22 12:19:41;;;;;;;6.80;1.17;;;19.30;99.90;;;;;;4403629;32;20094;-65
2021/09/22 12:22:08;;;;;;;3.05;1.30;;;19.10;99.90;;;;;;4403408;32;20061;-65
2021/09/22 12:24:34;;;;;;;14.90;1.65;;;18.80;99.90;;;;;;4392494;32;20097;-65
2021/09/22 12:27:01;;;;;;;0.35;0.35;;;18.60;99.90;;;;;;4388851;32;20193;-65
2021/09/22 12:29:27;;;;;;;21.92;1.75;;;19.30;99.90;;;;;;4389180;32;20118;-65
2021/09/22 12:31:53;;;;;;;4.12;1.15;;;20.10;99.90;;;;;;4402013;32;20524;-65
2021/09/22 12:34:24;;;;;;;0.50;0.50;;;20.40;99.90;;;;;;4400578;32;20556;-65
2021/09/22 12:36:53;;;;;;;0.22;0.22;;;20.50;99.90;;;;;;4384264;32;20073;-65
2021/09/22 12:39:22;;;;;;;0.45;0.45;;;20.70;99.90;;;;;;4381090;32;20081;-65
2021/09/22 12:42:06;;;;;;;2.30;0.90;;;20.60;99.90;;;;;;4393211;32;20085;-63
2021/09/22 12:44:52;;;;;;;0.30;0.30;;;20.90;99.90;;;;;;4392864;32;20098;-64